Time;durP1;ratioP1;P1;durP2;ratioP2;P2;SDS_P1;SDS_P2;PMS_P1;PMS_P2;Temp;Humidity;BMP_temperature;BMP_pressure;BME280_temperature;BME280_humidity;BME280_pressure;Samples;Min_cycle;Max_cycle;Signal;HPM_P1;HPM_P2
2021/04/20 00:00:21;;;;;;;16.75;6.03;;;3.70;93.40;;;;;;5060114;28;20045;-66
2021/04/20 00:02:48;;;;;;;10.80;5.32;;;3.70;93.40;;;;;;5063472;28;20418;-64
2021/04/20 00:05:22;;;;;;;11.88;5.20;;;3.60;93.50;;;;;;5065410;28;20056;-65
2021/04/20 00:07:50;;;;;;;11.40;5.30;;;3.60;93.40;;;;;;5067597;28;20063;-64
2021/04/20 00:10:21;;;;;;;10.18;5.63;;;3.50;93.50;;;;;;5062321;28;20060;-65
2021/04/20 00:12:49;;;;;;;9.90;4.03;;;3.50;93.80;;;;;;5065560;28;20179;-65
2021/04/20 00:15:20;;;;;;;10.20;5.05;;;3.50;93.60;;;;;;5064875;28;20332;-65
2021/04/20 00:17:50;;;;;;;10.98;4.85;;;3.40;93.60;;;;;;5066295;28;20368;-66
2021/04/20 00:20:17;;;;;;;10.10;5.30;;;3.40;93.70;;;;;;5071232;28;20063;-65
2021/04/20 00:22:44;;;;;;;9.02;4.50;;;3.40;93.60;;;;;;5068423;28;20056;-65
2021/04/20 00:25:12;;;;;;;9.80;4.53;;;3.40;93.40;;;;;;5064762;28;20244;-65
2021/04/20 00:28:10;;;;;;;9.85;5.50;;;3.50;93.20;;;;;;5063081;28;20295;-64
2021/04/20 00:30:37;;;;;;;16.00;6.25;;;3.40;93.20;;;;;;5044803;28;20111;-65
2021/04/20 00:33:05;;;;;;;16.65;5.55;;;3.40;93.40;;;;;;5069556;28;20057;-65
2021/04/20 00:35:34;;;;;;;12.00;6.57;;;3.40;93.50;;;;;;5064109;28;20079;-65
2021/04/20 00:38:04;;;;;;;13.27;6.15;;;3.30;93.60;;;;;;5074116;28;20044;-65
2021/04/20 00:40:35;;;;;;;15.80;4.95;;;3.40;93.70;;;;;;5080435;28;20463;-65
2021/04/20 00:43:04;;;;;;;12.90;5.72;;;3.30;93.70;;;;;;5061844;28;20060;-64
2021/04/20 00:45:35;;;;;;;12.27;5.43;;;3.30;93.80;;;;;;5069579;28;20240;-64
2021/04/20 00:48:05;;;;;;;9.98;5.28;;;3.30;93.70;;;;;;5065567;28;20335;-65
2021/04/20 00:50:35;;;;;;;12.75;5.72;;;3.30;93.50;;;;;;5064334;28;20056;-65
2021/04/20 00:53:05;;;;;;;10.93;5.15;;;3.20;93.60;;;;;;5069788;28;20382;-65
2021/04/20 00:55:39;;;;;;;10.25;4.28;;;3.10;93.60;;;;;;5065250;28;20589;-65
2021/04/20 00:58:12;;;;;;;13.20;5.47;;;3.10;93.90;;;;;;5065623;28;20036;-65
2021/04/20 01:00:42;;;;;;;11.85;4.88;;;3.10;93.90;;;;;;5057981;28;20166;-66
2021/04/20 01:03:12;;;;;;;9.73;4.85;;;3.00;93.90;;;;;;5058927;28;20049;-64
2021/04/20 01:05:41;;;;;;;12.43;5.35;;;3.10;93.90;;;;;;5071795;28;20107;-65
2021/04/20 01:08:12;;;;;;;10.27;4.65;;;3.00;93.70;;;;;;5062884;28;20056;-65
2021/04/20 01:10:50;;;;;;;10.75;5.35;;;3.00;93.80;;;;;;5061057;28;20224;-66
2021/04/20 01:13:23;;;;;;;8.85;4.75;;;3.00;93.60;;;;;;5065592;28;20040;-65
2021/04/20 01:15:55;;;;;;;9.13;5.47;;;2.90;93.60;;;;;;5068676;28;20264;-66
2021/04/20 01:18:27;;;;;;;10.82;4.45;;;2.90;93.70;;;;;;5069806;28;20056;-65
2021/04/20 01:20:59;;;;;;;9.00;4.28;;;2.80;94.00;;;;;;5070307;28;20089;-65
2021/04/20 01:23:50;;;;;;;10.45;4.95;;;2.90;94.00;;;;;;5065496;28;20056;-64
2021/04/20 01:26:31;;;;;;;9.02;4.20;;;2.80;93.90;;;;;;5066614;28;20065;-65
2021/04/20 01:29:00;;;;;;;13.63;4.50;;;2.80;93.90;;;;;;5069266;28;20051;-65
2021/04/20 01:31:31;;;;;;;;;;;2.70;94.20;;;;;;5066387;28;20051;-66
2021/04/20 01:34:06;;;;;;;11.52;5.88;;;2.70;94.00;;;;;;5067804;28;19917;-65
2021/04/20 01:36:37;;;;;;;11.25;5.47;;;2.60;93.90;;;;;;5061032;28;20097;-65
2021/04/20 01:39:07;;;;;;;7.00;4.25;;;2.60;93.80;;;;;;5068350;28;20040;-66
2021/04/20 01:41:39;;;;;;;9.05;4.00;;;2.60;93.90;;;;;;5067192;28;20099;-64
2021/04/20 01:44:09;;;;;;;8.80;4.75;;;2.60;93.90;;;;;;5051179;28;20049;-65
2021/04/20 01:46:48;;;;;;;10.32;4.93;;;2.50;94.00;;;;;;5063432;28;20056;-65
2021/04/20 01:49:18;;;;;;;10.35;5.07;;;2.50;94.10;;;;;;5069923;28;20132;-65
2021/04/20 01:52:01;;;;;;;10.80;5.18;;;2.50;94.20;;;;;;5063984;28;20067;-64
2021/04/20 01:54:35;;;;;;;9.95;4.90;;;2.40;94.20;;;;;;5068322;28;20118;-65
2021/04/20 01:57:08;;;;;;;10.25;5.50;;;2.40;94.40;;;;;;5067901;28;20061;-65
2021/04/20 01:59:40;;;;;;;10.07;4.18;;;2.40;94.20;;;;;;5061939;28;20101;-65
2021/04/20 02:02:17;;;;;;;10.88;5.28;;;2.40;94.40;;;;;;5052640;28;20044;-65
2021/04/20 02:04:49;;;;;;;10.05;4.97;;;2.40;94.40;;;;;;5068471;28;20052;-65
2021/04/20 02:07:18;;;;;;;13.27;5.57;;;2.40;94.50;;;;;;5072444;28;20055;-65
2021/04/20 02:09:47;;;;;;;10.45;5.30;;;2.40;94.50;;;;;;5075816;28;20144;-66
2021/04/20 02:12:18;;;;;;;12.48;5.05;;;2.50;94.40;;;;;;5066534;28;20098;-65
2021/04/20 02:14:48;;;;;;;12.25;4.82;;;2.50;94.40;;;;;;5067152;28;20049;-65
2021/04/20 02:17:17;;;;;;;11.52;4.38;;;2.60;94.10;;;;;;5064672;28;20057;-65
2021/04/20 02:19:49;;;;;;;11.25;4.68;;;2.50;94.00;;;;;;5057151;28;20138;-65
2021/04/20 02:22:19;;;;;;;10.68;4.63;;;2.50;94.10;;;;;;5063322;28;20056;-65
2021/04/20 02:24:52;;;;;;;11.68;5.57;;;2.60;93.90;;;;;;5059771;28;20774;-66
2021/04/20 02:27:22;;;;;;;10.40;5.03;;;2.50;93.60;;;;;;5068075;28;20097;-65
2021/04/20 02:29:52;;;;;;;10.47;4.97;;;2.40;93.90;;;;;;5066072;28;20051;-63
2021/04/20 02:32:21;;;;;;;11.50;5.43;;;2.50;93.90;;;;;;5065787;28;20048;-65
2021/04/20 02:34:49;;;;;;;10.88;4.38;;;2.50;93.70;;;;;;5070717;28;20058;-65
2021/04/20 02:37:19;;;;;;;12.52;3.95;;;2.50;93.70;;;;;;5066396;28;20351;-64
2021/04/20 02:39:50;;;;;;;10.52;5.22;;;2.40;93.50;;;;;;5062324;28;20049;-65
2021/04/20 02:42:18;;;;;;;11.75;5.82;;;2.30;93.90;;;;;;5063832;28;20048;-65
2021/04/20 02:44:49;;;;;;;10.48;4.22;;;2.20;94.00;;;;;;5061357;28;20061;-65
2021/04/20 02:47:18;;;;;;;;;;;2.20;94.00;;;;;;5061325;28;20052;-65
2021/04/20 02:49:49;;;;;;;9.02;4.15;;;2.20;94.00;;;;;;5072299;28;19999;-65
2021/04/20 02:52:18;;;;;;;;;;;2.10;93.80;;;;;;5063135;28;20048;-66
2021/04/20 02:54:47;;;;;;;12.38;4.18;;;2.00;93.70;;;;;;5071013;28;20165;-65
2021/04/20 02:57:17;;;;;;;10.77;4.90;;;2.00;93.80;;;;;;5065996;28;20059;-65
2021/04/20 02:59:46;;;;;;;9.18;3.97;;;2.00;94.00;;;;;;5065900;28;20041;-64
2021/04/20 03:02:24;;;;;;;10.30;4.18;;;1.90;94.10;;;;;;5059721;28;20086;-65
2021/04/20 03:04:54;;;;;;;15.88;4.57;;;1.90;94.40;;;;;;5064523;28;20048;-65
2021/04/20 03:07:28;;;;;;;9.20;4.25;;;1.90;94.40;;;;;;5066062;28;20386;-64
2021/04/20 03:09:58;;;;;;;14.13;5.85;;;1.90;94.40;;;;;;5067957;28;20048;-65
2021/04/20 03:12:27;;;;;;;10.35;4.35;;;1.90;94.50;;;;;;5069011;28;20366;-65
2021/04/20 03:14:59;;;;;;;10.25;4.88;;;2.00;94.50;;;;;;5070040;28;20110;-65
2021/04/20 03:17:30;;;;;;;8.82;4.85;;;2.00;94.30;;;;;;5062432;28;20045;-64
2021/04/20 03:20:00;;;;;;;8.02;4.63;;;2.00;94.10;;;;;;5064287;28;20437;-66
2021/04/20 03:22:36;;;;;;;9.63;4.53;;;2.00;93.90;;;;;;5057798;28;20053;-65
2021/04/20 03:25:23;;;;;;;10.13;4.63;;;2.00;94.00;;;;;;5054804;28;20125;-65
2021/04/20 03:27:58;;;;;;;10.82;4.32;;;2.00;94.00;;;;;;5065104;28;20095;-65
2021/04/20 03:30:31;;;;;;;12.70;4.95;;;2.00;93.80;;;;;;5062295;28;20056;-65
2021/04/20 03:33:32;;;;;;;10.30;4.72;;;1.90;93.70;;;;;;5062240;28;21156;-64
2021/04/20 03:36:14;;;;;;;11.63;5.35;;;1.80;94.00;;;;;;5065899;28;20052;-65
2021/04/20 03:38:48;;;;;;;8.18;4.53;;;1.80;94.00;;;;;;5063057;28;20048;-64
2021/04/20 03:41:25;;;;;;;9.85;3.88;;;1.80;94.00;;;;;;5063970;28;20123;-65
2021/04/20 03:43:57;;;;;;;11.63;5.43;;;1.70;93.70;;;;;;5065731;28;20076;-66
2021/04/20 03:46:31;;;;;;;9.40;3.60;;;1.70;93.60;;;;;;5067068;28;20044;-66
2021/04/20 03:49:07;;;;;;;11.23;4.43;;;1.70;93.60;;;;;;5051577;28;20067;-65
2021/04/20 03:51:39;;;;;;;6.90;2.97;;;1.70;93.60;;;;;;5069768;28;20159;-64
2021/04/20 03:54:08;;;;;;;8.20;4.15;;;1.70;93.60;;;;;;5064313;28;20064;-65
2021/04/20 03:56:40;;;;;;;8.98;3.53;;;1.60;93.60;;;;;;5066253;28;20041;-66
2021/04/20 03:59:12;;;;;;;8.93;3.42;;;1.70;93.90;;;;;;5063533;28;20064;-64
2021/04/20 04:01:46;;;;;;;8.65;3.92;;;1.70;93.80;;;;;;5065780;28;20120;-65
2021/04/20 04:04:19;;;;;;;8.40;2.83;;;1.60;93.50;;;;;;5062829;28;20055;-65
2021/04/20 04:06:50;;;;;;;8.27;3.78;;;1.60;93.70;;;;;;5062975;28;20072;-65
2021/04/20 04:09:20;;;;;;;7.78;4.18;;;1.70;93.90;;;;;;5058009;28;20059;-65
2021/04/20 04:11:54;;;;;;;11.85;4.07;;;1.70;93.80;;;;;;5061853;28;20048;-65
2021/04/20 04:14:33;;;;;;;11.93;4.13;;;1.70;93.70;;;;;;5053856;28;20132;-66
2021/04/20 04:17:07;;;;;;;8.48;4.10;;;1.70;93.80;;;;;;5063529;28;20151;-65
2021/04/20 04:19:45;;;;;;;10.25;4.03;;;1.70;93.80;;;;;;5068609;28;20239;-65
2021/04/20 04:22:15;;;;;;;10.88;4.68;;;1.80;93.70;;;;;;5061282;28;20064;-66
2021/04/20 04:24:53;;;;;;;11.32;5.30;;;1.80;93.70;;;;;;5064331;28;20057;-65
2021/04/20 04:27:29;;;;;;;12.07;4.90;;;1.90;93.80;;;;;;5063710;28;20067;-65
2021/04/20 04:30:04;;;;;;;12.55;4.90;;;1.90;93.90;;;;;;5065281;28;20064;-65
2021/04/20 04:32:37;;;;;;;10.85;5.40;;;2.00;94.00;;;;;;5058892;28;20359;-65
2021/04/20 04:35:08;;;;;;;12.30;5.30;;;2.10;93.90;;;;;;5067959;28;20058;-65
2021/04/20 04:37:38;;;;;;;11.65;5.18;;;2.20;93.80;;;;;;5059973;28;20052;-66
2021/04/20 04:40:10;;;;;;;13.50;4.72;;;2.20;93.60;;;;;;5060682;28;20048;-65
2021/04/20 04:42:38;;;;;;;11.00;4.55;;;2.30;93.50;;;;;;5062541;28;20297;-64
2021/04/20 04:45:08;;;;;;;13.15;5.07;;;2.30;93.30;;;;;;5064078;28;20094;-65
2021/04/20 04:47:41;;;;;;;11.95;4.82;;;2.40;93.00;;;;;;5059235;28;20040;-65
2021/04/20 04:50:13;;;;;;;13.52;6.53;;;2.50;92.40;;;;;;5071696;28;20041;-65
2021/04/20 04:52:46;;;;;;;11.88;6.38;;;2.60;92.00;;;;;;5064460;28;20052;-64
2021/04/20 04:55:17;;;;;;;13.30;4.90;;;2.50;92.00;;;;;;5063276;28;20053;-65
2021/04/20 04:57:51;;;;;;;11.68;5.00;;;2.60;91.90;;;;;;5063377;28;20048;-65
2021/04/20 05:00:21;;;;;;;10.88;4.22;;;2.60;92.00;;;;;;5060888;28;20239;-64
2021/04/20 05:02:53;;;;;;;13.77;5.47;;;2.70;91.80;;;;;;5031441;28;20087;-65
2021/04/20 05:05:29;;;;;;;11.15;5.80;;;2.60;92.10;;;;;;5072605;28;20104;-64
2021/04/20 05:08:02;;;;;;;28.52;5.43;;;2.60;92.80;;;;;;5065660;28;20048;-64
2021/04/20 05:10:31;;;;;;;11.50;5.60;;;2.60;93.00;;;;;;5069870;28;20044;-65
2021/04/20 05:13:01;;;;;;;11.00;4.80;;;2.60;93.20;;;;;;5072593;28;20060;-65
2021/04/20 05:15:30;;;;;;;12.80;4.80;;;2.60;93.10;;;;;;5068417;28;20088;-64
2021/04/20 05:18:01;;;;;;;14.30;5.35;;;2.60;93.30;;;;;;5074064;28;20080;-64
2021/04/20 05:20:31;;;;;;;12.57;5.57;;;2.60;92.40;;;;;;5059402;28;20445;-66
2021/04/20 05:23:00;;;;;;;8.30;4.23;;;2.50;91.80;;;;;;5064434;28;20232;-65
2021/04/20 05:25:53;;;;;;;10.60;5.07;;;2.50;91.60;;;;;;5066437;28;20048;-64
2021/04/20 05:28:26;;;;;;;8.45;5.15;;;2.50;91.60;;;;;;5064470;28;20063;-64
2021/04/20 05:30:56;;;;;;;12.25;5.00;;;2.50;91.60;;;;;;5058276;28;20049;-64
2021/04/20 05:33:28;;;;;;;9.82;4.88;;;2.60;91.50;;;;;;5072648;28;20111;-65
2021/04/20 05:36:06;;;;;;;11.05;4.78;;;2.60;91.40;;;;;;5061846;28;20095;-65
2021/04/20 05:38:37;;;;;;;12.15;4.95;;;2.60;91.30;;;;;;5063984;28;20048;-64
2021/04/20 05:41:08;;;;;;;13.60;6.38;;;2.60;91.20;;;;;;5053272;28;20194;-65
2021/04/20 05:43:36;;;;;;;11.73;5.25;;;2.70;91.20;;;;;;5069408;28;20052;-64
2021/04/20 05:46:06;;;;;;;10.57;5.13;;;2.70;91.30;;;;;;5068421;28;20055;-65
2021/04/20 05:48:39;;;;;;;10.63;3.92;;;2.70;91.40;;;;;;5068533;28;20112;-64
2021/04/20 05:51:08;;;;;;;10.75;5.00;;;2.80;91.50;;;;;;5053868;28;20063;-65
2021/04/20 05:53:39;;;;;;;11.55;5.85;;;2.80;91.40;;;;;;5075696;28;20244;-64
2021/04/20 05:56:09;;;;;;;12.70;5.97;;;2.90;91.30;;;;;;5068191;28;20081;-65
2021/04/20 05:58:38;;;;;;;13.45;5.45;;;3.00;91.20;;;;;;5063055;28;20052;-64
2021/04/20 06:01:07;;;;;;;9.30;5.53;;;3.00;91.10;;;;;;5061959;28;20288;-65
2021/04/20 06:03:45;;;;;;;12.30;6.82;;;3.10;91.10;;;;;;5061808;28;20112;-66
2021/04/20 06:06:21;;;;;;;13.02;5.68;;;3.10;91.10;;;;;;5064351;28;20131;-66
2021/04/20 06:08:54;;;;;;;15.60;5.00;;;3.20;90.80;;;;;;5070059;28;20084;-64
2021/04/20 06:11:29;;;;;;;17.20;6.20;;;3.30;90.80;;;;;;5071252;28;20060;-64
2021/04/20 06:13:59;;;;;;;13.00;6.15;;;3.30;90.80;;;;;;5065759;28;20099;-65
2021/04/20 06:16:29;;;;;;;9.75;4.70;;;3.40;90.50;;;;;;5065520;28;20070;-65
2021/04/20 06:19:00;;;;;;;12.38;6.18;;;3.50;90.50;;;;;;5067751;28;20056;-64
2021/04/20 06:21:35;;;;;;;10.88;5.93;;;3.60;90.30;;;;;;5069421;28;20049;-64
2021/04/20 06:24:05;;;;;;;12.98;5.53;;;3.70;90.30;;;;;;5063173;28;20319;-65
2021/04/20 06:26:37;;;;;;;12.43;5.60;;;3.70;90.30;;;;;;5065152;28;20244;-65
2021/04/20 06:29:07;;;;;;;11.30;5.63;;;3.80;90.00;;;;;;5065119;28;20049;-65
2021/04/20 06:31:44;;;;;;;20.15;7.95;;;3.90;90.00;;;;;;5062650;28;20091;-65
2021/04/20 06:34:35;;;;;;;14.73;6.40;;;3.90;89.80;;;;;;5062545;28;20040;-65
2021/04/20 06:37:09;;;;;;;10.85;5.50;;;4.10;89.90;;;;;;5067828;28;20124;-65
2021/04/20 06:39:39;;;;;;;13.95;6.57;;;4.20;89.60;;;;;;5064312;28;20041;-65
2021/04/20 06:42:10;;;;;;;13.80;6.78;;;4.30;89.30;;;;;;5064627;28;20125;-65
2021/04/20 06:44:46;;;;;;;15.13;7.47;;;4.40;89.10;;;;;;5066525;28;20057;-64
2021/04/20 06:47:16;;;;;;;16.85;7.18;;;4.50;88.90;;;;;;5064541;28;20052;-65
2021/04/20 06:49:46;;;;;;;14.60;6.13;;;4.60;88.50;;;;;;5068377;28;20216;-65
2021/04/20 06:52:19;;;;;;;12.85;5.25;;;4.70;88.30;;;;;;5068147;28;20301;-65
2021/04/20 06:54:56;;;;;;;14.00;6.07;;;4.80;88.30;;;;;;5065357;28;20052;-65
2021/04/20 06:57:33;;;;;;;13.75;6.55;;;4.90;87.70;;;;;;5065746;28;20057;-65
2021/04/20 07:00:05;;;;;;;12.40;6.60;;;4.90;87.30;;;;;;5068175;28;20083;-64
2021/04/20 07:02:45;;;;;;;17.42;9.00;;;5.00;87.90;;;;;;5067276;28;20049;-65
2021/04/20 07:05:20;;;;;;;15.70;6.80;;;5.10;87.70;;;;;;5063110;28;20534;-64
2021/04/20 07:08:11;;;;;;;16.35;7.00;;;5.20;87.50;;;;;;5059918;28;20057;-64
2021/04/20 07:10:41;;;;;;;;;;;5.40;87.50;;;;;;5067317;28;20284;-65
2021/04/20 07:13:14;;;;;;;13.63;5.90;;;5.60;87.40;;;;;;5082335;28;19924;-65
2021/04/20 07:15:48;;;;;;;13.75;7.10;;;5.70;87.10;;;;;;5062400;28;20056;-65
2021/04/20 07:19:03;;;;;;;16.10;7.15;;;5.80;86.50;;;;;;5066692;28;20306;-65
2021/04/20 07:22:05;;;;;;;13.57;6.38;;;5.90;86.50;;;;;;5057802;28;20046;-64
2021/04/20 07:24:39;;;;;;;12.82;6.38;;;6.10;85.70;;;;;;5032975;28;20255;-65
2021/04/20 07:27:28;;;;;;;15.73;5.88;;;6.30;85.80;;;;;;5063787;28;20064;-65
2021/04/20 07:30:09;;;;;;;14.20;6.57;;;6.40;85.40;;;;;;5062637;28;20052;-64
2021/04/20 07:32:51;;;;;;;16.77;8.60;;;6.50;84.60;;;;;;5062418;28;20454;-65
2021/04/20 07:35:23;;;;;;;14.70;6.68;;;6.70;84.90;;;;;;5065037;28;20323;-64
2021/04/20 07:37:56;;;;;;;15.07;6.82;;;6.80;84.30;;;;;;5066987;28;20086;-65
2021/04/20 07:40:35;;;;;;;16.17;7.22;;;7.00;84.40;;;;;;5064382;28;20052;-64
2021/04/20 07:43:26;;;;;;;15.75;8.02;;;7.10;82.80;;;;;;5066253;28;20098;-64
2021/04/20 07:45:56;;;;;;;17.30;6.85;;;7.20;83.30;;;;;;5065896;28;20139;-65
2021/04/20 07:48:38;;;;;;;13.48;6.63;;;7.40;83.70;;;;;;5060271;28;20052;-65
2021/04/20 07:51:11;;;;;;;14.93;6.40;;;7.60;83.60;;;;;;5066847;28;20298;-65
2021/04/20 07:53:50;;;;;;;17.45;8.38;;;7.70;83.00;;;;;;5061130;28;20057;-65
2021/04/20 07:56:24;;;;;;;12.80;7.18;;;7.80;81.90;;;;;;5064381;28;20114;-65
2021/04/20 07:58:54;;;;;;;19.10;8.30;;;7.90;81.40;;;;;;5059131;28;20055;-65
2021/04/20 08:01:38;;;;;;;;;;;8.00;81.20;;;;;;5058370;28;20057;-64
2021/04/20 08:04:40;;;;;;;10.68;5.35;;;8.20;81.20;;;;;;5060974;28;20144;-65
2021/04/20 08:07:12;;;;;;;14.32;6.55;;;8.30;80.10;;;;;;5065099;28;20052;-65
2021/04/20 08:09:43;;;;;;;17.05;7.72;;;8.50;80.60;;;;;;5061940;28;20046;-65
2021/04/20 08:12:18;;;;;;;19.73;8.65;;;8.70;80.00;;;;;;5064466;28;20048;-65
2021/04/20 08:14:50;;;;;;;15.82;7.03;;;8.80;80.00;;;;;;5070006;28;20074;-65
2021/04/20 08:17:26;;;;;;;20.17;8.88;;;9.00;78.20;;;;;;5062901;28;20056;-64
2021/04/20 08:19:57;;;;;;;17.75;8.38;;;9.10;77.70;;;;;;5063014;28;20052;-64
2021/04/20 08:22:26;;;;;;;15.77;8.10;;;9.20;77.00;;;;;;5064280;28;20093;-65
2021/04/20 08:25:00;;;;;;;21.05;9.80;;;9.40;76.90;;;;;;5058770;28;20163;-64
2021/04/20 08:27:45;;;;;;;19.83;9.27;;;9.60;76.70;;;;;;5063898;28;20052;-65
2021/04/20 08:30:18;;;;;;;18.27;8.75;;;9.80;75.40;;;;;;5063247;28;20044;-65
2021/04/20 08:32:49;;;;;;;20.42;8.82;;;10.00;75.40;;;;;;5067421;28;20063;-65
2021/04/20 08:35:21;;;;;;;18.75;9.35;;;10.20;75.10;;;;;;5064222;28;20048;-65
2021/04/20 08:37:57;;;;;;;18.35;9.73;;;10.40;74.00;;;;;;5082590;28;20597;-65
2021/04/20 08:40:27;;;;;;;15.40;8.27;;;10.60;72.90;;;;;;5060203;28;20142;-65
2021/04/20 08:43:09;;;;;;;19.63;8.68;;;10.80;72.30;;;;;;5062412;28;20091;-65
2021/04/20 08:45:44;;;;;;;21.23;9.65;;;11.00;70.10;;;;;;5061852;28;20072;-65
2021/04/20 08:48:21;;;;;;;14.60;8.70;;;11.10;67.50;;;;;;5065462;28;20065;-65
2021/04/20 08:50:56;;;;;;;15.90;8.18;;;11.20;69.60;;;;;;5061859;28;20131;-65
2021/04/20 08:53:46;;;;;;;18.02;9.35;;;11.40;67.80;;;;;;5062881;28;20127;-65
2021/04/20 08:56:22;;;;;;;16.83;7.30;;;11.60;66.40;;;;;;5063791;28;20068;-65
2021/04/20 08:59:29;;;;;;;13.30;6.00;;;11.70;65.10;;;;;;5060550;28;20078;-65
2021/04/20 09:02:12;;;;;;;10.82;5.97;;;11.90;64.90;;;;;;5028495;28;20067;-65
2021/04/20 09:04:54;;;;;;;13.27;6.55;;;12.00;62.40;;;;;;5058656;28;20233;-65
2021/04/20 09:07:31;;;;;;;17.95;9.23;;;12.20;63.10;;;;;;5067118;28;20052;-65
2021/04/20 09:10:05;;;;;;;14.77;7.25;;;12.40;63.10;;;;;;5059810;28;20045;-65
2021/04/20 09:12:36;;;;;;;13.88;6.97;;;12.60;63.40;;;;;;5063366;28;20386;-65
2021/04/20 09:15:08;;;;;;;15.38;6.75;;;12.70;60.30;;;;;;5064844;28;20053;-65
2021/04/20 09:17:40;;;;;;;13.82;7.32;;;12.60;60.30;;;;;;5064293;28;20052;-64
2021/04/20 09:20:12;;;;;;;14.57;7.63;;;12.70;59.40;;;;;;5059472;28;20333;-64
2021/04/20 09:22:51;;;;;;;16.73;8.30;;;12.90;60.50;;;;;;5059344;28;20064;-65
2021/04/20 09:25:24;;;;;;;14.85;7.05;;;13.10;60.20;;;;;;5063134;28;20142;-64
2021/04/20 09:28:03;;;;;;;13.70;7.18;;;13.20;58.80;;;;;;5064452;28;20158;-65
2021/04/20 09:30:37;;;;;;;13.63;7.22;;;13.40;58.10;;;;;;5062831;28;20053;-65
2021/04/20 09:33:08;;;;;;;13.18;6.63;;;13.60;57.80;;;;;;5062022;28;20067;-64
2021/04/20 09:35:36;;;;;;;15.00;7.43;;;13.70;56.90;;;;;;5063086;28;20076;-64
2021/04/20 09:38:05;;;;;;;13.45;6.82;;;13.70;56.70;;;;;;5061392;28;20277;-65
2021/04/20 09:40:32;;;;;;;11.75;6.35;;;14.00;55.60;;;;;;5059701;28;20033;-65
2021/04/20 09:43:12;;;;;;;13.48;6.32;;;14.10;54.70;;;;;;5061797;28;20358;-65
2021/04/20 09:45:45;;;;;;;16.00;7.78;;;14.20;53.90;;;;;;5063870;28;20671;-65
2021/04/20 09:48:20;;;;;;;14.13;7.03;;;14.40;55.20;;;;;;5060158;28;20056;-65
2021/04/20 09:50:57;;;;;;;13.45;7.03;;;14.60;53.70;;;;;;5061774;28;20068;-65
2021/04/20 09:53:36;;;;;;;12.48;5.95;;;14.60;52.70;;;;;;5061044;28;20348;-64
2021/04/20 09:56:19;;;;;;;11.20;5.80;;;15.10;52.50;;;;;;5063623;28;20072;-64
2021/04/20 09:58:48;;;;;;;11.98;5.80;;;15.50;51.60;;;;;;5062453;28;20348;-65
2021/04/20 10:01:37;;;;;;;11.70;5.50;;;15.80;48.90;;;;;;5053810;28;20052;-66
2021/04/20 10:04:12;;;;;;;11.90;5.97;;;15.90;48.00;;;;;;5064649;28;20110;-65
2021/04/20 10:07:09;;;;;;;13.25;6.32;;;16.10;47.90;;;;;;5063686;28;20071;-65
2021/04/20 10:09:43;;;;;;;11.02;5.43;;;16.40;47.70;;;;;;5064246;28;20069;-65
2021/04/20 10:12:23;;;;;;;11.75;5.70;;;16.50;45.90;;;;;;5061059;28;20050;-65
2021/04/20 10:15:03;;;;;;;9.57;5.05;;;17.30;44.80;;;;;;5066828;28;20094;-65
2021/04/20 10:17:37;;;;;;;9.65;5.47;;;18.20;41.80;;;;;;5074402;28;20338;-65
2021/04/20 10:20:15;;;;;;;11.38;6.07;;;19.10;40.20;;;;;;5069382;28;20044;-65
2021/04/20 10:22:53;;;;;;;9.80;5.05;;;20.10;38.30;;;;;;5061839;28;20052;-65
2021/04/20 10:25:29;;;;;;;9.77;5.38;;;22.00;34.50;;;;;;5068251;28;20067;-65
2021/04/20 10:28:04;;;;;;;13.02;5.78;;;23.00;34.00;;;;;;5070990;28;20056;-65
2021/04/20 10:30:37;;;;;;;10.50;5.45;;;23.00;31.80;;;;;;5069034;28;20072;-64
2021/04/20 10:33:05;;;;;;;12.93;5.35;;;23.70;29.90;;;;;;5065743;28;20098;-65
2021/04/20 10:35:37;;;;;;;9.88;4.95;;;24.40;30.50;;;;;;5069626;28;20045;-65
2021/04/20 10:38:12;;;;;;;8.50;5.00;;;25.10;29.30;;;;;;5065656;28;20052;-66
2021/04/20 10:40:44;;;;;;;11.00;6.13;;;25.80;27.80;;;;;;5070165;28;20355;-66
2021/04/20 10:43:16;;;;;;;9.32;5.47;;;25.10;27.70;;;;;;5079256;28;20056;-65
2021/04/20 10:45:45;;;;;;;9.23;5.35;;;26.20;27.70;;;;;;5070032;28;20052;-66
2021/04/20 10:48:17;;;;;;;8.55;4.93;;;26.00;26.00;;;;;;5074660;28;20344;-66
2021/04/20 10:50:49;;;;;;;7.75;4.57;;;25.40;28.90;;;;;;5073411;28;20295;-67
2021/04/20 10:53:21;;;;;;;7.65;4.90;;;26.60;25.70;;;;;;5074628;28;20052;-66
2021/04/20 10:55:53;;;;;;;7.97;4.80;;;26.00;27.00;;;;;;5077671;28;20067;-66
2021/04/20 10:58:26;;;;;;;11.05;5.43;;;26.10;25.60;;;;;;5069754;28;20055;-66
2021/04/20 11:00:55;;;;;;;8.43;4.68;;;25.90;25.50;;;;;;5072310;28;20072;-66
2021/04/20 11:03:25;;;;;;;7.53;4.20;;;25.80;25.80;;;;;;5075149;28;20212;-66
2021/04/20 11:05:52;;;;;;;7.28;4.05;;;26.00;25.80;;;;;;5072103;28;20252;-66
2021/04/20 11:08:24;;;;;;;8.52;4.55;;;26.60;25.60;;;;;;5073102;28;20057;-66
2021/04/20 11:10:51;;;;;;;8.85;5.05;;;28.50;24.10;;;;;;5070598;28;20053;-66
2021/04/20 11:13:34;;;;;;;8.10;4.85;;;27.90;24.10;;;;;;5069382;28;20049;-66
2021/04/20 11:16:05;;;;;;;8.20;4.63;;;27.40;23.70;;;;;;5078149;28;20099;-66
2021/04/20 11:18:37;;;;;;;9.48;4.80;;;27.00;24.30;;;;;;5079942;28;20071;-65
2021/04/20 11:21:14;;;;;;;8.10;4.22;;;29.10;22.90;;;;;;5073298;28;20090;-66
2021/04/20 11:23:54;;;;;;;7.28;4.10;;;28.50;23.30;;;;;;5068581;28;20056;-65
2021/04/20 11:26:23;;;;;;;;;;;26.60;24.30;;;;;;5067290;28;20041;-65
2021/04/20 11:28:53;;;;;;;8.82;4.15;;;27.10;24.20;;;;;;5069668;28;19933;-66
2021/04/20 11:31:33;;;;;;;6.43;3.53;;;28.30;23.10;;;;;;5072388;28;20157;-66
2021/04/20 11:34:04;;;;;;;8.00;4.45;;;29.80;21.60;;;;;;5068261;28;20078;-66
2021/04/20 11:36:34;;;;;;;7.25;3.80;;;29.50;22.20;;;;;;5071023;28;20049;-66
2021/04/20 11:39:06;;;;;;;8.20;4.50;;;29.70;21.90;;;;;;5071440;28;20065;-67
2021/04/20 11:41:39;;;;;;;6.05;3.75;;;29.60;21.50;;;;;;5068488;28;20056;-66
2021/04/20 11:44:08;;;;;;;7.50;4.38;;;28.70;21.80;;;;;;5070024;28;20044;-66
2021/04/20 11:46:38;;;;;;;7.80;4.63;;;28.40;22.20;;;;;;5069192;28;20060;-64
2021/04/20 11:49:12;;;;;;;8.05;4.93;;;30.80;20.40;;;;;;5072610;28;20049;-65
2021/04/20 11:51:41;;;;;;;8.80;4.65;;;29.60;21.40;;;;;;5079599;28;20164;-66
2021/04/20 11:54:18;;;;;;;7.90;4.72;;;28.20;22.10;;;;;;5070810;28;20045;-66
2021/04/20 11:56:46;;;;;;;7.18;4.68;;;28.00;23.60;;;;;;5064968;28;20063;-66
2021/04/20 11:59:13;;;;;;;8.63;4.35;;;27.80;23.20;;;;;;5071309;28;20060;-66
2021/04/20 12:01:47;;;;;;;9.15;5.40;;;27.70;23.20;;;;;;5073125;28;20036;-66
2021/04/20 12:04:15;;;;;;;7.53;4.55;;;28.30;22.40;;;;;;5072845;28;20048;-65
2021/04/20 12:06:49;;;;;;;9.38;4.80;;;29.20;21.70;;;;;;5069203;28;20571;-65
2021/04/20 12:09:20;;;;;;;7.85;4.60;;;29.00;21.80;;;;;;5069085;28;20115;-64
2021/04/20 12:11:48;;;;;;;7.60;4.88;;;29.00;22.20;;;;;;5072315;28;20064;-66
2021/04/20 12:14:19;;;;;;;9.93;5.15;;;28.80;22.90;;;;;;5070904;28;20048;-66
2021/04/20 12:16:49;;;;;;;7.53;4.75;;;27.50;23.70;;;;;;5071668;28;20048;-66
2021/04/20 12:19:17;;;;;;;7.78;4.63;;;27.60;23.90;;;;;;5071395;28;20060;-66
2021/04/20 12:21:46;;;;;;;7.88;4.50;;;26.00;25.20;;;;;;5074712;28;20071;-66
2021/04/20 12:24:17;;;;;;;6.88;3.92;;;28.30;24.10;;;;;;5072245;28;20105;-66
2021/04/20 12:26:50;;;;;;;7.15;3.95;;;30.80;20.80;;;;;;5075841;28;20251;-65
2021/04/20 12:29:19;;;;;;;7.25;3.92;;;31.80;19.50;;;;;;5079477;28;20059;-65
2021/04/20 12:31:47;;;;;;;;;;;32.60;18.50;;;;;;5068996;28;20087;-66
2021/04/20 12:34:33;;;;;;;8.70;4.65;;;33.20;18.00;;;;;;5133632;27;20399;-65
2021/04/20 12:37:08;;;;;;;7.72;3.72;;;30.10;20.30;;;;;;5097818;28;20234;-65
2021/04/20 12:39:38;;;;;;;7.55;4.50;;;27.90;23.20;;;;;;5090591;28;20107;-65
2021/04/20 12:42:10;;;;;;;10.25;4.50;;;28.50;22.80;;;;;;5118931;28;20052;-65
2021/04/20 12:44:42;;;;;;;9.18;4.35;;;30.60;20.70;;;;;;5116833;28;20050;-66
2021/04/20 12:47:11;;;;;;;6.82;4.03;;;31.70;19.60;;;;;;5113804;28;20247;-66
2021/04/20 12:49:45;;;;;;;7.72;4.22;;;31.70;19.50;;;;;;5113121;28;20059;-66
2021/04/20 12:52:17;;;;;;;7.90;3.80;;;32.10;18.90;;;;;;5117654;28;20046;-65
2021/04/20 12:54:47;;;;;;;7.35;4.32;;;31.80;18.60;;;;;;5117799;28;20294;-65
2021/04/20 12:57:17;;;;;;;6.68;3.60;;;29.80;21.00;;;;;;5116888;28;20056;-66
2021/04/20 12:59:45;;;;;;;8.20;3.85;;;31.30;19.40;;;;;;5113783;28;20048;-65
2021/04/20 13:02:19;;;;;;;7.65;4.38;;;32.10;18.80;;;;;;5112381;28;20055;-67
2021/04/20 13:04:48;;;;;;;8.43;4.25;;;33.20;18.10;;;;;;5115663;28;20063;-65
2021/04/20 13:07:15;;;;;;;6.40;3.60;;;32.80;17.60;;;;;;5116261;28;20051;-67
2021/04/20 13:09:43;;;;;;;6.28;3.60;;;32.30;17.70;;;;;;5115579;28;20058;-66
2021/04/20 13:12:14;;;;;;;5.60;3.47;;;31.30;18.10;;;;;;5097145;28;20067;-65
2021/04/20 13:14:46;;;;;;;6.88;4.00;;;31.60;18.80;;;;;;5114360;28;20081;-66
2021/04/20 13:17:17;;;;;;;7.70;3.67;;;31.60;18.50;;;;;;5113393;28;20248;-66
2021/04/20 13:19:50;;;;;;;6.53;3.85;;;32.10;17.90;;;;;;5110515;28;20079;-66